createdAt,value
2022-11-24T00:00:53.454Z,9.44
2022-11-24T00:03:21.153Z,9.47
2022-11-24T00:05:48.867Z,9.50
2022-11-24T00:08:18.263Z,9.36
2022-11-24T00:10:45.780Z,9.56
2022-11-24T00:13:13.481Z,9.57
2022-11-24T00:15:41.026Z,9.50
2022-11-24T00:18:08.481Z,9.47
2022-11-24T00:20:35.951Z,9.39
2022-11-24T00:23:03.415Z,9.45
2022-11-24T00:25:33.085Z,9.46
2022-11-24T00:28:00.707Z,9.35
2022-11-24T00:30:28.186Z,9.39
2022-11-24T00:32:55.776Z,9.42
2022-11-24T00:35:24.301Z,9.46
2022-11-24T00:37:53.571Z,9.34
2022-11-24T00:40:21.298Z,9.42
2022-11-24T00:42:50.151Z,9.35
2022-11-24T00:45:17.785Z,9.29
2022-11-24T00:47:45.252Z,9.39
2022-11-24T00:50:12.797Z,9.45
2022-11-24T00:52:40.298Z,9.28
2022-11-24T00:55:08.326Z,9.18
2022-11-24T00:57:36.420Z,9.27
2022-11-24T01:00:06.238Z,9.25
2022-11-24T01:02:33.764Z,9.36
2022-11-24T01:05:02.141Z,9.45
2022-11-24T01:07:29.708Z,9.38
2022-11-24T01:09:57.300Z,9.29
2022-11-24T01:12:24.771Z,9.28
2022-11-24T01:14:52.230Z,9.34
2022-11-24T01:17:21.058Z,9.36
2022-11-24T01:19:49.074Z,9.29
2022-11-24T01:22:16.660Z,9.26
2022-11-24T01:24:44.200Z,9.20
2022-11-24T01:27:11.674Z,9.26
2022-11-24T01:29:39.137Z,9.26
2022-11-24T01:32:07.094Z,9.26
2022-11-24T01:34:36.011Z,9.41
2022-11-24T01:37:03.526Z,9.34
2022-11-24T01:39:30.971Z,9.35
2022-11-24T01:42:02.014Z,9.28
2022-11-24T01:44:30.946Z,9.30
2022-11-24T01:47:01.939Z,9.26
2022-11-24T01:49:40.378Z,9.19
2022-11-24T01:52:12.767Z,9.24
2022-11-24T01:54:44.631Z,9.19
2022-11-24T01:57:17.936Z,9.12
2022-11-24T01:59:47.614Z,9.01
2022-11-24T02:02:15.437Z,9.07
2022-11-24T02:04:46.365Z,9.03
2022-11-24T02:07:15.278Z,9.06
2022-11-24T02:09:48.588Z,9.17
2022-11-24T02:12:16.106Z,9.21
2022-11-24T02:14:44.921Z,9.27
2022-11-24T02:17:12.538Z,9.12
2022-11-24T02:19:49.902Z,9.13
2022-11-24T02:22:23.928Z,9.22
2022-11-24T02:24:57.006Z,9.17
2022-11-24T02:27:26.108Z,9.22
2022-11-24T02:29:53.709Z,9.19
2022-11-24T02:32:21.499Z,9.18
2022-11-24T02:34:49.157Z,9.22
2022-11-24T02:37:16.632Z,9.15
2022-11-24T02:39:44.063Z,9.07
2022-11-24T02:42:14.524Z,9.10
2022-11-24T02:44:46.506Z,9.12
2022-11-24T02:47:14.247Z,9.10
2022-11-24T02:49:42.101Z,9.20
2022-11-24T02:52:09.957Z,9.29
2022-11-24T02:54:37.583Z,9.26
2022-11-24T02:57:05.287Z,9.33
2022-11-24T02:59:32.891Z,9.32
2022-11-24T03:02:02.949Z,9.31
2022-11-24T03:04:30.672Z,9.33
2022-11-24T03:06:58.602Z,9.39
2022-11-24T03:09:26.062Z,9.42
2022-11-24T03:11:53.525Z,9.43
2022-11-24T03:14:20.957Z,9.29
2022-11-24T03:16:48.533Z,9.20
2022-11-24T03:19:17.373Z,9.37
2022-11-24T03:21:46.044Z,9.41
2022-11-24T03:24:13.521Z,9.26
2022-11-24T03:26:41.815Z,9.12
2022-11-24T03:29:09.618Z,9.06
2022-11-24T03:31:37.254Z,9.00
2022-11-24T03:34:04.980Z,9.11
2022-11-24T03:36:33.816Z,9.16
2022-11-24T03:39:01.422Z,9.15
2022-11-24T03:41:28.881Z,9.16
2022-11-24T03:43:56.450Z,9.21
2022-11-24T03:46:24.003Z,9.35
2022-11-24T03:48:51.550Z,9.40
2022-11-24T03:51:19.010Z,9.29
2022-11-24T03:53:47.779Z,9.27
2022-11-24T03:56:15.783Z,9.33
2022-11-24T03:58:43.331Z,9.28
2022-11-24T04:01:10.828Z,9.30
2022-11-24T04:03:38.253Z,9.27
2022-11-24T04:06:05.792Z,9.29
2022-11-24T04:08:33.246Z,9.32
2022-11-24T04:11:02.063Z,9.34
2022-11-24T04:13:28.747Z,9.46
2022-11-24T04:15:56.201Z,9.55
2022-11-24T04:18:23.951Z,9.62
2022-11-24T04:20:51.936Z,9.57
2022-11-24T04:23:20.569Z,9.44
2022-11-24T04:25:48.638Z,9.55
2022-11-24T04:28:17.428Z,9.51
2022-11-24T04:30:45.344Z,9.56
2022-11-24T04:33:13.738Z,9.57
2022-11-24T04:35:41.217Z,9.66
2022-11-24T04:38:08.755Z,9.51
2022-11-24T04:40:36.175Z,9.54
2022-11-24T04:43:03.632Z,9.53
2022-11-24T04:45:32.454Z,9.48
2022-11-24T04:47:59.916Z,9.36
2022-11-24T04:50:27.429Z,9.41
2022-11-24T04:52:54.918Z,9.39
2022-11-24T04:55:22.393Z,9.46
2022-11-24T04:57:49.868Z,9.59
2022-11-24T05:00:18.405Z,9.56
2022-11-24T05:02:47.280Z,9.46
2022-11-24T05:05:14.846Z,9.52
2022-11-24T05:07:42.343Z,9.58
2022-11-24T05:10:28.084Z,9.65
2022-11-24T05:12:56.007Z,9.66
2022-11-24T05:15:23.487Z,9.58
2022-11-24T05:17:52.564Z,9.50
2022-11-24T05:20:20.202Z,9.56
2022-11-24T05:22:47.816Z,9.51
2022-11-24T05:25:15.433Z,9.58
2022-11-24T05:27:42.969Z,9.55
2022-11-24T05:30:11.209Z,9.50
2022-11-24T05:32:38.665Z,9.59
2022-11-24T05:35:09.639Z,9.75
2022-11-24T05:37:37.407Z,9.78
2022-11-24T05:40:06.810Z,9.79
2022-11-24T05:42:47.568Z,9.85
2022-11-24T05:45:21.271Z,9.77
2022-11-24T05:47:50.413Z,9.79
2022-11-24T05:50:20.980Z,9.78
2022-11-24T05:52:48.511Z,9.77
2022-11-24T05:55:16.774Z,9.84
2022-11-24T05:57:44.261Z,9.85
2022-11-24T06:00:12.605Z,9.95
2022-11-24T06:02:40.376Z,9.94
2022-11-24T06:05:09.005Z,9.93
2022-11-24T06:07:37.858Z,9.87
2022-11-24T06:10:06.062Z,9.89
2022-11-24T06:12:33.540Z,9.88
2022-11-24T06:15:01.117Z,9.90
2022-11-24T06:17:28.730Z,9.91
2022-11-24T06:19:56.209Z,9.79
2022-11-24T06:22:23.650Z,9.79
2022-11-24T06:24:52.610Z,9.84
2022-11-24T06:27:20.115Z,9.89
2022-11-24T06:29:48.222Z,9.83
2022-11-24T06:32:16.009Z,9.82
2022-11-24T06:34:43.904Z,9.85
2022-11-24T06:37:11.470Z,9.74
2022-11-24T06:39:38.992Z,9.95
2022-11-24T06:42:07.868Z,9.75
2022-11-24T06:44:35.468Z,9.70
2022-11-24T06:47:03.092Z,9.58
2022-11-24T06:49:30.531Z,9.64
2022-11-24T06:51:58.014Z,9.82
2022-11-24T06:54:25.463Z,9.77
2022-11-24T06:56:57.275Z,9.65
2022-11-24T06:59:26.672Z,9.68
2022-11-24T07:01:54.236Z,9.70
2022-11-24T07:04:21.677Z,9.60
2022-11-24T07:06:49.192Z,9.49
2022-11-24T07:09:16.648Z,9.39
2022-11-24T07:11:44.160Z,9.39
2022-11-24T07:14:11.621Z,9.45
2022-11-24T07:16:40.825Z,9.45
2022-11-24T07:19:10.486Z,9.62
2022-11-24T07:21:37.947Z,9.48
2022-11-24T07:24:06.204Z,9.46
2022-11-24T07:26:37.102Z,9.56
2022-11-24T07:29:05.479Z,9.50
2022-11-24T07:31:33.113Z,9.37
2022-11-24T07:34:02.031Z,9.22
2022-11-24T07:36:29.481Z,9.13
2022-11-24T07:38:56.950Z,9.25
2022-11-24T07:41:24.437Z,9.35
2022-11-24T07:43:52.948Z,9.36
2022-11-24T07:46:21.229Z,9.45
2022-11-24T07:48:48.892Z,9.52
2022-11-24T07:51:17.702Z,9.59
2022-11-24T07:53:46.288Z,9.63
2022-11-24T07:56:13.976Z,9.67
2022-11-24T07:58:41.476Z,9.54
2022-11-24T08:01:14.385Z,9.40
2022-11-24T08:03:42.651Z,9.45
2022-11-24T08:06:30.514Z,9.28
2022-11-24T08:09:00.298Z,9.33
2022-11-24T08:11:27.965Z,9.59
2022-11-24T08:13:55.502Z,9.56
2022-11-24T08:16:23.131Z,9.43
2022-11-24T08:18:51.810Z,9.40
2022-11-24T08:21:19.563Z,9.42
2022-11-24T08:23:47.301Z,9.50
2022-11-24T08:26:19.148Z,9.44
2022-11-24T08:28:47.442Z,9.60
2022-11-24T08:31:18.450Z,9.74
2022-11-24T08:33:46.148Z,9.77
2022-11-24T08:36:16.075Z,9.55
2022-11-24T08:38:44.557Z,9.65
2022-11-24T08:41:14.443Z,9.63
2022-11-24T08:43:43.757Z,9.77
2022-11-24T08:46:13.750Z,9.64
2022-11-24T08:48:41.629Z,9.66
2022-11-24T08:51:12.061Z,9.89
2022-11-24T08:53:40.243Z,9.69
2022-11-24T08:56:08.619Z,9.57
2022-11-24T08:58:36.985Z,9.63
2022-11-24T09:01:07.470Z,9.40
2022-11-24T09:03:35.352Z,9.63
2022-11-24T09:06:03.480Z,9.44
2022-11-24T09:08:31.657Z,9.44
2022-11-24T09:11:01.957Z,9.51
2022-11-24T09:13:29.943Z,9.40
2022-11-24T09:15:57.517Z,9.57
2022-11-24T09:18:30.059Z,9.63
2022-11-24T09:21:07.994Z,9.53
2022-11-24T09:23:36.099Z,9.50
2022-11-24T09:26:05.638Z,9.58
2022-11-24T09:28:33.125Z,9.65
2022-11-24T09:31:04.731Z,9.71
2022-11-24T09:33:34.468Z,9.81
2022-11-24T09:36:02.864Z,9.79
2022-11-24T09:38:30.741Z,9.79
2022-11-24T09:41:22.400Z,9.71
2022-11-24T09:44:00.333Z,9.79
2022-11-24T09:46:33.883Z,10.04
2022-11-24T09:49:06.121Z,10.21
2022-11-24T09:51:34.871Z,10.17
2022-11-24T09:54:07.589Z,10.05
2022-11-24T09:56:40.616Z,10.06
2022-11-24T09:59:15.576Z,10.00
2022-11-24T10:01:45.294Z,10.05
2022-11-24T10:04:18.281Z,10.06
2022-11-24T10:06:51.609Z,9.92
2022-11-24T10:09:38.678Z,10.21
2022-11-24T10:12:27.507Z,10.31
2022-11-24T10:15:18.857Z,10.16
2022-11-24T10:18:01.044Z,10.29
2022-11-24T10:20:42.807Z,10.29
2022-11-24T10:23:25.098Z,10.16
2022-11-24T10:25:58.276Z,9.87
2022-11-24T10:28:33.415Z,10.14
2022-11-24T10:31:18.328Z,10.14
2022-11-24T10:33:47.437Z,10.06
2022-11-24T10:36:22.801Z,10.22
2022-11-24T10:38:55.078Z,10.22
2022-11-24T10:41:30.543Z,10.39
2022-11-24T10:43:59.249Z,10.49
2022-11-24T10:46:31.456Z,10.41
2022-11-24T10:49:05.496Z,10.40
2022-11-24T10:51:43.594Z,10.32
2022-11-24T10:54:17.668Z,10.36
2022-11-24T10:56:46.960Z,10.42
2022-11-24T10:59:39.420Z,10.36
2022-11-24T11:02:44.139Z,10.66
2022-11-24T11:05:35.022Z,10.90
2022-11-24T11:08:19.813Z,10.89
2022-11-24T11:10:49.073Z,10.80
2022-11-24T11:13:24.910Z,11.06
2022-11-24T11:15:52.546Z,10.99
2022-11-24T11:18:21.399Z,11.06
2022-11-24T11:20:52.607Z,11.14
2022-11-24T11:23:27.689Z,11.14
2022-11-24T11:26:21.128Z,11.07
2022-11-24T11:31:15.498Z,11.20
2022-11-24T11:34:51.604Z,11.19
2022-11-24T11:37:20.945Z,11.26
2022-11-24T11:39:51.891Z,11.39
2022-11-24T11:43:00.041Z,11.26
2022-11-24T11:45:16.559Z,11.36
2022-11-24T11:47:50.904Z,11.38
2022-11-24T11:50:25.292Z,11.32
2022-11-24T11:53:06.036Z,11.36
2022-11-24T11:55:48.154Z,11.29
2022-11-24T11:58:37.616Z,11.39
2022-11-24T12:01:19.399Z,11.37
2022-11-24T12:03:57.228Z,11.39
2022-11-24T12:06:42.259Z,11.33
2022-11-24T12:09:22.479Z,11.17
2022-11-24T12:12:04.445Z,10.84
2022-11-24T12:14:42.291Z,10.83
2022-11-24T12:17:21.824Z,10.87
2022-11-24T12:20:08.300Z,11.01
2022-11-24T12:22:46.170Z,11.25
2022-11-24T12:25:23.811Z,11.24
2022-11-24T12:28:04.218Z,11.00
2022-11-24T12:30:42.719Z,10.90
2022-11-24T12:33:30.264Z,11.21
2022-11-24T12:36:04.377Z,11.50
2022-11-24T12:38:46.637Z,11.72
2022-11-24T12:41:41.785Z,11.84
2022-11-24T12:44:26.669Z,12.01
2022-11-24T12:47:00.078Z,11.79
2022-11-24T12:49:34.974Z,11.75
2022-11-24T12:52:07.139Z,11.83
2022-11-24T12:54:41.595Z,11.90
2022-11-24T12:57:15.966Z,12.01
2022-11-24T12:59:53.860Z,12.00
2022-11-24T13:02:30.915Z,12.15
2022-11-24T13:05:09.579Z,11.98
2022-11-24T13:07:44.632Z,12.01
2022-11-24T13:13:23.031Z,11.99
2022-11-24T13:19:10.290Z,12.12
2022-11-24T13:22:00.932Z,12.07
2022-11-24T13:24:30.630Z,12.14
2022-11-24T13:27:27.549Z,12.11
2022-11-24T13:29:55.313Z,12.20
2022-11-24T13:33:02.760Z,12.20
2022-11-24T13:35:30.544Z,12.37
2022-11-24T13:37:58.029Z,12.27
2022-11-24T13:40:59.834Z,12.00
2022-11-24T13:43:31.828Z,12.20
2022-11-24T13:45:59.455Z,12.27
2022-11-24T13:49:02.390Z,12.19
2022-11-24T13:51:30.051Z,12.09
2022-11-24T13:54:00.836Z,12.13
2022-11-24T13:56:31.091Z,12.15
2022-11-24T13:59:01.899Z,12.24
2022-11-24T14:01:32.211Z,12.30
2022-11-24T14:04:33.459Z,12.40
2022-11-24T14:07:09.130Z,12.49
2022-11-24T14:09:42.423Z,12.39
2022-11-24T14:12:15.191Z,12.44
2022-11-24T14:14:43.949Z,12.44
2022-11-24T14:17:18.594Z,12.36
2022-11-24T14:19:49.271Z,12.45
2022-11-24T14:22:18.813Z,12.43
2022-11-24T14:24:51.782Z,12.39
2022-11-24T14:27:22.976Z,12.15
2022-11-24T14:29:55.570Z,12.23
2022-11-24T14:32:23.402Z,12.30
2022-11-24T14:34:53.997Z,12.17
2022-11-24T14:37:21.640Z,12.10
2022-11-24T14:39:49.751Z,11.96
2022-11-24T14:42:19.931Z,12.01
2022-11-24T14:44:51.646Z,11.93
2022-11-24T14:47:30.590Z,11.86
2022-11-24T14:50:09.153Z,11.88
2022-11-24T14:52:37.358Z,11.90
2022-11-24T14:55:22.095Z,11.94
2022-11-24T14:57:50.359Z,12.01
2022-11-24T15:00:20.452Z,11.97
2022-11-24T15:02:51.712Z,11.90
2022-11-24T15:05:21.919Z,12.01
2022-11-24T15:07:52.702Z,12.01
2022-11-24T15:10:27.745Z,11.96
2022-11-24T15:13:00.718Z,11.93
2022-11-24T15:15:33.107Z,11.92
2022-11-24T15:18:02.251Z,11.80
2022-11-24T15:20:35.112Z,11.81
2022-11-24T15:23:25.349Z,11.78
2022-11-24T15:25:54.204Z,11.54
2022-11-24T15:28:25.534Z,11.55
2022-11-24T15:30:54.797Z,11.38
2022-11-24T15:33:23.671Z,11.38
2022-11-24T15:35:52.568Z,11.18
2022-11-24T15:38:20.788Z,11.07
2022-11-24T15:40:50.088Z,11.07
2022-11-24T15:43:23.508Z,11.04
2022-11-24T15:45:51.010Z,10.96
2022-11-24T15:48:18.604Z,10.86
2022-11-24T15:50:46.408Z,10.90
2022-11-24T15:53:19.981Z,10.95
2022-11-24T15:55:47.915Z,10.94
2022-11-24T15:58:16.185Z,10.96
2022-11-24T16:00:45.073Z,11.02
2022-11-24T16:03:45.239Z,10.78
2022-11-24T16:06:00.628Z,10.72
2022-11-24T16:08:29.428Z,10.77
2022-11-24T16:10:56.952Z,10.59
2022-11-24T16:13:24.476Z,10.56
2022-11-24T16:15:51.965Z,10.55
2022-11-24T16:18:19.537Z,10.52
2022-11-24T16:20:47.084Z,10.54
2022-11-24T16:23:14.588Z,10.51
2022-11-24T16:25:43.393Z,10.36
2022-11-24T16:28:10.864Z,10.36
2022-11-24T16:30:38.455Z,10.41
2022-11-24T16:33:06.650Z,10.27
2022-11-24T16:35:34.299Z,10.09
2022-11-24T16:38:01.753Z,10.11
2022-11-24T16:40:29.301Z,10.13
2022-11-24T16:42:58.721Z,10.12
2022-11-24T16:45:26.644Z,10.05
2022-11-24T16:47:54.148Z,10.07
2022-11-24T16:50:21.834Z,10.11
2022-11-24T16:52:49.299Z,10.00
2022-11-24T16:55:16.963Z,9.86
2022-11-24T16:57:44.550Z,9.81
2022-11-24T17:00:15.072Z,9.74
2022-11-24T17:02:42.574Z,9.81
2022-11-24T17:05:10.554Z,9.80
2022-11-24T17:07:38.062Z,9.84
2022-11-24T17:10:07.092Z,9.76
2022-11-24T17:12:36.267Z,9.72
2022-11-24T17:15:31.208Z,9.66
2022-11-24T17:18:22.316Z,9.67
2022-11-24T17:20:40.171Z,9.77
2022-11-24T17:23:07.642Z,9.85
2022-11-24T17:25:35.119Z,9.89
2022-11-24T17:28:02.532Z,9.84
2022-11-24T17:30:29.994Z,9.75
2022-11-24T17:32:59.043Z,9.66
2022-11-24T17:35:26.457Z,9.74
2022-11-24T17:37:53.886Z,9.83
2022-11-24T17:40:28.437Z,9.75
2022-11-24T17:42:58.984Z,9.79
2022-11-24T17:45:26.962Z,9.83
2022-11-24T17:47:54.536Z,9.86
2022-11-24T17:50:25.943Z,9.82
2022-11-24T17:52:53.674Z,9.75
2022-11-24T17:55:21.162Z,9.68
2022-11-24T17:57:48.589Z,9.63
2022-11-24T18:00:17.060Z,9.57
2022-11-24T18:02:44.513Z,9.51
2022-11-24T18:05:12.021Z,9.47
2022-11-24T18:07:40.862Z,9.56
2022-11-24T18:10:09.504Z,9.47
2022-11-24T18:12:36.938Z,9.51
2022-11-24T18:15:04.873Z,9.47
2022-11-24T18:17:32.291Z,9.40
2022-11-24T18:19:59.746Z,9.43
2022-11-24T18:22:50.083Z,9.41
2022-11-24T18:25:16.177Z,9.36
2022-11-24T18:27:43.676Z,9.39
2022-11-24T18:30:11.307Z,9.38
2022-11-24T18:32:38.759Z,9.35
2022-11-24T18:35:07.226Z,9.33
2022-11-24T18:37:36.644Z,9.31
2022-11-24T18:40:04.475Z,9.27
2022-11-24T18:42:33.278Z,9.41
2022-11-24T18:45:00.724Z,9.41
2022-11-24T18:47:28.200Z,9.35
2022-11-24T18:49:59.028Z,9.47
2022-11-24T18:52:26.573Z,9.44
2022-11-24T18:54:54.033Z,9.41
2022-11-24T18:57:21.490Z,9.42
2022-11-24T18:59:50.300Z,9.38
2022-11-24T19:02:17.784Z,9.32
2022-11-24T19:04:45.275Z,9.22
2022-11-24T19:07:12.793Z,9.20
2022-11-24T19:09:40.300Z,9.25
2022-11-24T19:12:09.263Z,9.23
2022-11-24T19:14:37.928Z,9.13
2022-11-24T19:17:06.997Z,9.20
2022-11-24T19:19:35.805Z,9.19
2022-11-24T19:22:04.081Z,9.08
2022-11-24T19:24:31.526Z,9.08
2022-11-24T19:26:59.134Z,9.08
2022-11-24T19:29:26.596Z,8.93
2022-11-24T19:31:55.008Z,8.94
2022-11-24T19:34:23.846Z,8.97
2022-11-24T19:36:51.292Z,8.87
2022-11-24T19:39:18.854Z,8.87
2022-11-24T19:41:46.349Z,8.84
2022-11-24T19:44:14.325Z,8.77
2022-11-24T19:46:41.759Z,8.83
2022-11-24T19:49:09.676Z,8.85
2022-11-24T19:51:40.018Z,8.91
2022-11-24T19:54:12.661Z,8.83
2022-11-24T19:56:41.248Z,8.86
2022-11-24T19:59:08.868Z,8.78
2022-11-24T20:01:37.972Z,8.70
2022-11-24T20:04:07.265Z,8.82
2022-11-24T20:06:37.233Z,8.74
2022-11-24T20:09:07.613Z,8.66
2022-11-24T20:11:35.307Z,8.50
2022-11-24T20:14:02.983Z,8.59
2022-11-24T20:16:32.408Z,8.51
2022-11-24T20:19:01.699Z,8.49
2022-11-24T20:21:31.708Z,8.44
2022-11-24T20:24:01.554Z,8.61
2022-11-24T20:26:32.459Z,8.53
2022-11-24T20:29:00.974Z,8.59
2022-11-24T20:31:30.490Z,8.57
2022-11-24T20:33:58.456Z,8.61
2022-11-24T20:36:28.158Z,8.60
2022-11-24T20:38:56.239Z,8.63
2022-11-24T20:41:25.726Z,8.57
2022-11-24T20:43:57.271Z,8.52
2022-11-24T20:46:27.310Z,8.57
2022-11-24T20:48:55.855Z,8.51
2022-11-24T20:51:25.227Z,8.36
2022-11-24T20:53:55.527Z,8.55
2022-11-24T20:56:24.827Z,8.43
2022-11-24T20:58:54.252Z,8.33
2022-11-24T21:01:23.903Z,8.40
2022-11-24T21:03:54.170Z,8.42
2022-11-24T21:06:22.439Z,8.25
2022-11-24T21:08:50.384Z,8.32
2022-11-24T21:11:19.172Z,8.34
2022-11-24T21:13:47.428Z,8.25
2022-11-24T21:16:18.803Z,8.18
2022-11-24T21:18:47.939Z,8.35
2022-11-24T21:21:15.625Z,8.26
2022-11-24T21:23:44.951Z,8.05
2022-11-24T21:26:16.564Z,8.10
2022-11-24T21:28:46.084Z,8.09
2022-11-24T21:31:17.177Z,8.05
2022-11-24T21:33:46.607Z,8.09
2022-11-24T21:36:16.237Z,7.97
2022-11-24T21:38:43.723Z,7.94
2022-11-24T21:41:13.841Z,7.91
2022-11-24T21:43:41.319Z,7.95
2022-11-24T21:46:11.634Z,7.87
2022-11-24T21:48:41.630Z,8.03
2022-11-24T21:51:12.371Z,8.05
2022-11-24T21:53:39.911Z,7.91
2022-11-24T21:56:12.529Z,8.01
2022-11-24T21:58:45.477Z,7.87
2022-11-24T22:01:13.249Z,8.03
2022-11-24T22:03:42.180Z,8.06
2022-11-24T22:06:09.646Z,7.98
2022-11-24T22:08:37.166Z,7.92
2022-11-24T22:11:07.095Z,7.94
2022-11-24T22:13:35.370Z,7.95
2022-11-24T22:16:04.080Z,8.00
2022-11-24T22:18:33.086Z,8.01
2022-11-24T22:21:03.036Z,7.98
2022-11-24T22:23:31.114Z,7.95
2022-11-24T22:26:03.547Z,7.99
2022-11-24T22:28:32.154Z,8.01
2022-11-24T22:30:59.747Z,7.85
2022-11-24T22:33:27.194Z,7.87
2022-11-24T22:35:58.165Z,7.99
2022-11-24T22:38:28.097Z,7.93
2022-11-24T22:40:55.588Z,7.99
2022-11-24T22:43:23.300Z,7.96
2022-11-24T22:45:50.889Z,8.04
2022-11-24T22:48:18.797Z,8.06
2022-11-24T22:50:46.294Z,8.11
2022-11-24T22:53:13.739Z,8.18
2022-11-24T22:55:42.531Z,8.13
2022-11-24T22:58:10.025Z,8.16
2022-11-24T23:00:37.494Z,8.22
2022-11-24T23:03:04.985Z,8.27
2022-11-24T23:05:33.618Z,8.26
2022-11-24T23:08:01.089Z,8.28
2022-11-24T23:10:28.562Z,8.28
2022-11-24T23:12:57.385Z,8.32
2022-11-24T23:15:24.879Z,8.30
2022-11-24T23:17:52.328Z,8.31
2022-11-24T23:20:19.972Z,8.28
2022-11-24T23:22:47.512Z,8.39
2022-11-24T23:25:15.061Z,8.35
2022-11-24T23:27:42.512Z,8.34
2022-11-24T23:30:11.869Z,8.42
2022-11-24T23:32:40.042Z,8.37
2022-11-24T23:35:13.467Z,8.51
2022-11-24T23:38:06.111Z,8.47
2022-11-24T23:40:29.284Z,8.41
2022-11-24T23:42:56.752Z,8.51
2022-11-24T23:45:25.604Z,8.47
2022-11-24T23:47:54.775Z,8.46
2022-11-24T23:50:22.241Z,8.45
2022-11-24T23:52:49.788Z,8.47
2022-11-24T23:55:17.455Z,8.53
2022-11-24T23:57:45.112Z,8.62
